Kitwanga, Canada
Current Conditions -  °F | °C
As of 6:00 PM on Saturday 22 Nov 2014 (Local Time) from CYYD Reporting Station
Overcast Overcast  
Wind Chill:   Ceiling: 6000
Heat Index:   Visibility: 20mi
Dew Point:   Wind: 3mph
Humidity: 93%   Direction: 290°WNW
Pressure: 29.58"   Gusts: NA
Location:  55.1°N, 128.07°W
Report Text: CYYD 230200Z 29003KT 120V290 20SM OVC060 01/00 A2958 RMK SC8 SLP035
Loading
Personal Weather Stations






























Interactive Weather Map New forecast layout! Learn more

10-Day Weather Forecast

Advertisements
Track Severe Weather on mobile